Almond, New York
Current Conditions -  °F | °C
As of 6:54 PM on Wednesday 28 Jan 2015 (Local Time) from KDSV Reporting Station
Clear Clear  
Wind Chill: -16°   Ceiling: Unl
Heat Index: -11°   Visibility: 10mi
Dew Point: -16°   Wind: 6mph
Humidity: 70%   Direction: 180°S
Pressure: 30.3"   Gusts: NA
Location:  42.32°N, 77.74°W
Report Text: KDSV 282354Z AUTO 18005KT 10SM CLR M11/M16 A3030 RMK AO2 SLP287 T11111156 11039 21111 51010
Loading
Personal Weather Stations






























Interactive Weather Map New forecast layout! Learn more

10-Day Weather Forecast

Advertisements
Track Severe Weather on mobile